sensor_id;sensor_type;location;lat;lon;timestamp;P1;durP1;ratioP1;P2;durP2;ratioP2
8094;SDS011;4090;49.270;8.696;2022-08-25T00:02:09;3.28;;;2.97;;
8094;SDS011;4090;49.270;8.696;2022-08-25T00:04:51;3.85;;;2.83;;
8094;SDS011;4090;49.270;8.696;2022-08-25T00:07:34;3.85;;;2.70;;
8094;SDS011;4090;49.270;8.696;2022-08-25T00:10:16;2.90;;;2.63;;
8094;SDS011;4090;49.270;8.696;2022-08-25T00:12:59;3.03;;;2.60;;
8094;SDS011;4090;49.270;8.696;2022-08-25T00:15:42;3.55;;;2.60;;
8094;SDS011;4090;49.270;8.696;2022-08-25T00:18:24;5.88;;;2.88;;
8094;SDS011;4090;49.270;8.696;2022-08-25T00:21:07;3.50;;;2.80;;
8094;SDS011;4090;49.270;8.696;2022-08-25T00:23:50;3.10;;;2.75;;
8094;SDS011;4090;49.270;8.696;2022-08-25T00:26:33;3.25;;;2.55;;
8094;SDS011;4090;49.270;8.696;2022-08-25T00:29:18;4.55;;;2.60;;
8094;SDS011;4090;49.270;8.696;2022-08-25T00:32:00;4.05;;;2.60;;
8094;SDS011;4090;49.270;8.696;2022-08-25T00:34:42;3.75;;;2.70;;
8094;SDS011;4090;49.270;8.696;2022-08-25T00:37:24;3.55;;;2.60;;
8094;SDS011;4090;49.270;8.696;2022-08-25T00:40:09;3.50;;;2.83;;
8094;SDS011;4090;49.270;8.696;2022-08-25T00:42:51;4.18;;;2.97;;
8094;SDS011;4090;49.270;8.696;2022-08-25T00:45:33;3.00;;;2.70;;
8094;SDS011;4090;49.270;8.696;2022-08-25T00:48:16;3.35;;;2.90;;
8094;SDS011;4090;49.270;8.696;2022-08-25T00:50:58;3.47;;;3.03;;
8094;SDS011;4090;49.270;8.696;2022-08-25T00:53:42;3.22;;;2.88;;
8094;SDS011;4090;49.270;8.696;2022-08-25T00:56:26;3.78;;;2.67;;
8094;SDS011;4090;49.270;8.696;2022-08-25T00:59:10;6.07;;;2.90;;
8094;SDS011;4090;49.270;8.696;2022-08-25T01:01:54;3.65;;;2.83;;
8094;SDS011;4090;49.270;8.696;2022-08-25T01:04:36;5.07;;;3.33;;
8094;SDS011;4090;49.270;8.696;2022-08-25T01:07:19;3.80;;;3.05;;
8094;SDS011;4090;49.270;8.696;2022-08-25T01:10:03;3.85;;;2.92;;
8094;SDS011;4090;49.270;8.696;2022-08-25T01:12:49;3.42;;;2.90;;
8094;SDS011;4090;49.270;8.696;2022-08-25T01:15:33;9.40;;;3.35;;
8094;SDS011;4090;49.270;8.696;2022-08-25T01:18:15;3.97;;;2.65;;
8094;SDS011;4090;49.270;8.696;2022-08-25T01:20:58;3.50;;;2.83;;
8094;SDS011;4090;49.270;8.696;2022-08-25T01:23:40;5.72;;;3.08;;
8094;SDS011;4090;49.270;8.696;2022-08-25T01:26:23;4.35;;;3.10;;
8094;SDS011;4090;49.270;8.696;2022-08-25T01:29:06;4.82;;;3.35;;
8094;SDS011;4090;49.270;8.696;2022-08-25T01:32:03;3.65;;;3.03;;
8094;SDS011;4090;49.270;8.696;2022-08-25T01:34:46;3.80;;;3.03;;
8094;SDS011;4090;49.270;8.696;2022-08-25T01:37:30;4.80;;;3.00;;
8094;SDS011;4090;49.270;8.696;2022-08-25T01:40:15;3.40;;;2.90;;
8094;SDS011;4090;49.270;8.696;2022-08-25T01:42:57;4.80;;;3.13;;
8094;SDS011;4090;49.270;8.696;2022-08-25T01:45:47;4.28;;;2.88;;
8094;SDS011;4090;49.270;8.696;2022-08-25T01:48:29;3.67;;;2.80;;
8094;SDS011;4090;49.270;8.696;2022-08-25T01:51:13;3.67;;;3.30;;
8094;SDS011;4090;49.270;8.696;2022-08-25T01:53:56;3.22;;;2.92;;
8094;SDS011;4090;49.270;8.696;2022-08-25T01:56:38;4.15;;;3.40;;
8094;SDS011;4090;49.270;8.696;2022-08-25T01:59:20;4.35;;;2.85;;
8094;SDS011;4090;49.270;8.696;2022-08-25T02:02:03;4.45;;;3.30;;
8094;SDS011;4090;49.270;8.696;2022-08-25T02:04:45;3.72;;;3.05;;
8094;SDS011;4090;49.270;8.696;2022-08-25T02:07:27;6.95;;;3.30;;
8094;SDS011;4090;49.270;8.696;2022-08-25T02:10:11;4.90;;;3.33;;
8094;SDS011;4090;49.270;8.696;2022-08-25T02:12:53;4.50;;;3.45;;
8094;SDS011;4090;49.270;8.696;2022-08-25T02:15:38;5.00;;;3.20;;
8094;SDS011;4090;49.270;8.696;2022-08-25T02:18:21;4.28;;;3.28;;
8094;SDS011;4090;49.270;8.696;2022-08-25T02:21:03;4.82;;;3.30;;
8094;SDS011;4090;49.270;8.696;2022-08-25T02:23:45;5.85;;;3.50;;
8094;SDS011;4090;49.270;8.696;2022-08-25T02:26:29;4.80;;;3.60;;
8094;SDS011;4090;49.270;8.696;2022-08-25T02:29:11;4.85;;;3.53;;
8094;SDS011;4090;49.270;8.696;2022-08-25T02:31:53;5.13;;;3.50;;
8094;SDS011;4090;49.270;8.696;2022-08-25T02:34:35;5.32;;;3.88;;
8094;SDS011;4090;49.270;8.696;2022-08-25T02:37:16;5.90;;;4.00;;
8094;SDS011;4090;49.270;8.696;2022-08-25T02:39:59;5.53;;;3.72;;
8094;SDS011;4090;49.270;8.696;2022-08-25T02:42:43;5.18;;;4.10;;
8094;SDS011;4090;49.270;8.696;2022-08-25T02:45:24;5.55;;;4.25;;
8094;SDS011;4090;49.270;8.696;2022-08-25T02:48:06;18.95;;;12.57;;
8094;SDS011;4090;49.270;8.696;2022-08-25T02:50:48;9.35;;;6.78;;
8094;SDS011;4090;49.270;8.696;2022-08-25T02:53:32;7.13;;;4.72;;
8094;SDS011;4090;49.270;8.696;2022-08-25T02:56:15;6.03;;;4.30;;
8094;SDS011;4090;49.270;8.696;2022-08-25T02:58:59;5.82;;;4.28;;
8094;SDS011;4090;49.270;8.696;2022-08-25T03:01:42;6.25;;;4.43;;
8094;SDS011;4090;49.270;8.696;2022-08-25T03:04:24;6.40;;;4.13;;
8094;SDS011;4090;49.270;8.696;2022-08-25T03:07:06;7.32;;;4.63;;
8094;SDS011;4090;49.270;8.696;2022-08-25T03:09:48;7.88;;;4.50;;
8094;SDS011;4090;49.270;8.696;2022-08-25T03:12:30;4.90;;;4.32;;
8094;SDS011;4090;49.270;8.696;2022-08-25T03:15:14;5.72;;;4.38;;
8094;SDS011;4090;49.270;8.696;2022-08-25T03:17:57;5.95;;;4.65;;
8094;SDS011;4090;49.270;8.696;2022-08-25T03:20:40;5.63;;;4.32;;
8094;SDS011;4090;49.270;8.696;2022-08-25T03:23:22;4.40;;;4.00;;
8094;SDS011;4090;49.270;8.696;2022-08-25T03:26:04;6.30;;;4.50;;
8094;SDS011;4090;49.270;8.696;2022-08-25T03:29:03;7.35;;;4.82;;
8094;SDS011;4090;49.270;8.696;2022-08-25T03:31:47;9.10;;;5.20;;
8094;SDS011;4090;49.270;8.696;2022-08-25T03:34:29;7.13;;;4.93;;
8094;SDS011;4090;49.270;8.696;2022-08-25T03:37:11;6.50;;;4.88;;
8094;SDS011;4090;49.270;8.696;2022-08-25T03:39:53;7.25;;;4.68;;
8094;SDS011;4090;49.270;8.696;2022-08-25T03:42:35;6.53;;;4.55;;
8094;SDS011;4090;49.270;8.696;2022-08-25T03:45:21;5.95;;;4.38;;
8094;SDS011;4090;49.270;8.696;2022-08-25T03:48:05;9.00;;;4.63;;
8094;SDS011;4090;49.270;8.696;2022-08-25T03:50:48;8.98;;;5.35;;
8094;SDS011;4090;49.270;8.696;2022-08-25T03:53:33;6.78;;;4.97;;
8094;SDS011;4090;49.270;8.696;2022-08-25T03:56:15;5.35;;;4.65;;
8094;SDS011;4090;49.270;8.696;2022-08-25T03:58:57;9.18;;;5.28;;
8094;SDS011;4090;49.270;8.696;2022-08-25T04:01:40;8.82;;;5.30;;
8094;SDS011;4090;49.270;8.696;2022-08-25T04:04:24;10.70;;;5.82;;
8094;SDS011;4090;49.270;8.696;2022-08-25T04:07:06;7.15;;;5.00;;
8094;SDS011;4090;49.270;8.696;2022-08-25T04:09:47;6.90;;;5.20;;
8094;SDS011;4090;49.270;8.696;2022-08-25T04:12:29;5.97;;;4.80;;
8094;SDS011;4090;49.270;8.696;2022-08-25T04:15:11;6.63;;;5.15;;
8094;SDS011;4090;49.270;8.696;2022-08-25T04:17:53;6.28;;;4.88;;
8094;SDS011;4090;49.270;8.696;2022-08-25T04:20:36;6.25;;;5.03;;
8094;SDS011;4090;49.270;8.696;2022-08-25T04:23:19;8.13;;;5.22;;
8094;SDS011;4090;49.270;8.696;2022-08-25T04:26:01;8.90;;;4.82;;
8094;SDS011;4090;49.270;8.696;2022-08-25T04:28:42;6.22;;;4.82;;
8094;SDS011;4090;49.270;8.696;2022-08-25T04:31:25;7.00;;;5.22;;
8094;SDS011;4090;49.270;8.696;2022-08-25T04:34:08;8.88;;;5.47;;
8094;SDS011;4090;49.270;8.696;2022-08-25T04:36:52;8.68;;;5.20;;
8094;SDS011;4090;49.270;8.696;2022-08-25T04:39:34;7.50;;;5.38;;
8094;SDS011;4090;49.270;8.696;2022-08-25T04:42:16;7.30;;;5.13;;
8094;SDS011;4090;49.270;8.696;2022-08-25T04:44:58;6.55;;;5.25;;
8094;SDS011;4090;49.270;8.696;2022-08-25T04:47:41;8.13;;;5.10;;
8094;SDS011;4090;49.270;8.696;2022-08-25T04:50:22;8.13;;;5.15;;
8094;SDS011;4090;49.270;8.696;2022-08-25T04:53:06;8.55;;;4.88;;
8094;SDS011;4090;49.270;8.696;2022-08-25T04:55:47;7.85;;;5.22;;
8094;SDS011;4090;49.270;8.696;2022-08-25T04:58:29;7.47;;;5.43;;
8094;SDS011;4090;49.270;8.696;2022-08-25T05:01:13;7.88;;;5.55;;
8094;SDS011;4090;49.270;8.696;2022-08-25T05:03:56;9.25;;;5.35;;
8094;SDS011;4090;49.270;8.696;2022-08-25T05:06:40;7.60;;;5.43;;
8094;SDS011;4090;49.270;8.696;2022-08-25T05:09:24;7.63;;;5.68;;
8094;SDS011;4090;49.270;8.696;2022-08-25T05:12:06;6.30;;;4.68;;
8094;SDS011;4090;49.270;8.696;2022-08-25T05:14:50;9.27;;;5.68;;
8094;SDS011;4090;49.270;8.696;2022-08-25T05:17:32;9.93;;;5.75;;
8094;SDS011;4090;49.270;8.696;2022-08-25T05:20:14;5.65;;;4.80;;
8094;SDS011;4090;49.270;8.696;2022-08-25T05:22:56;8.45;;;5.30;;
8094;SDS011;4090;49.270;8.696;2022-08-25T05:25:39;5.93;;;4.85;;
8094;SDS011;4090;49.270;8.696;2022-08-25T05:28:21;7.10;;;5.25;;
8094;SDS011;4090;49.270;8.696;2022-08-25T05:31:03;10.73;;;5.63;;
8094;SDS011;4090;49.270;8.696;2022-08-25T05:33:46;6.53;;;5.47;;
8094;SDS011;4090;49.270;8.696;2022-08-25T05:36:28;7.20;;;5.80;;
8094;SDS011;4090;49.270;8.696;2022-08-25T05:39:10;6.63;;;5.15;;
8094;SDS011;4090;49.270;8.696;2022-08-25T05:41:53;9.60;;;6.00;;
8094;SDS011;4090;49.270;8.696;2022-08-25T05:44:35;8.15;;;5.47;;
8094;SDS011;4090;49.270;8.696;2022-08-25T05:47:17;8.60;;;5.38;;
8094;SDS011;4090;49.270;8.696;2022-08-25T05:49:59;7.40;;;5.18;;
8094;SDS011;4090;49.270;8.696;2022-08-25T05:52:41;9.68;;;6.03;;
8094;SDS011;4090;49.270;8.696;2022-08-25T05:55:24;8.35;;;5.50;;
8094;SDS011;4090;49.270;8.696;2022-08-25T05:58:07;8.88;;;5.95;;
8094;SDS011;4090;49.270;8.696;2022-08-25T06:00:49;7.10;;;5.80;;
8094;SDS011;4090;49.270;8.696;2022-08-25T06:03:31;7.70;;;6.25;;
8094;SDS011;4090;49.270;8.696;2022-08-25T06:06:12;7.13;;;5.75;;
8094;SDS011;4090;49.270;8.696;2022-08-25T06:08:54;8.88;;;5.45;;
8094;SDS011;4090;49.270;8.696;2022-08-25T06:11:37;11.13;;;5.97;;
8094;SDS011;4090;49.270;8.696;2022-08-25T06:14:21;8.77;;;5.82;;
8094;SDS011;4090;49.270;8.696;2022-08-25T06:17:04;7.20;;;5.70;;
8094;SDS011;4090;49.270;8.696;2022-08-25T06:19:45;8.55;;;6.03;;
8094;SDS011;4090;49.270;8.696;2022-08-25T06:22:27;7.75;;;5.82;;
8094;SDS011;4090;49.270;8.696;2022-08-25T06:25:10;6.93;;;5.85;;
8094;SDS011;4090;49.270;8.696;2022-08-25T06:27:54;9.73;;;5.78;;
8094;SDS011;4090;49.270;8.696;2022-08-25T06:30:37;7.25;;;5.38;;
8094;SDS011;4090;49.270;8.696;2022-08-25T06:33:19;7.57;;;5.78;;
8094;SDS011;4090;49.270;8.696;2022-08-25T06:36:01;9.50;;;6.00;;
8094;SDS011;4090;49.270;8.696;2022-08-25T06:38:44;8.00;;;5.82;;
8094;SDS011;4090;49.270;8.696;2022-08-25T06:41:26;6.88;;;5.38;;
8094;SDS011;4090;49.270;8.696;2022-08-25T06:44:10;8.07;;;5.82;;
8094;SDS011;4090;49.270;8.696;2022-08-25T06:46:53;8.65;;;6.13;;
8094;SDS011;4090;49.270;8.696;2022-08-25T06:49:35;7.55;;;5.93;;
8094;SDS011;4090;49.270;8.696;2022-08-25T06:52:17;6.97;;;5.95;;
8094;SDS011;4090;49.270;8.696;2022-08-25T06:54:59;7.38;;;5.55;;
8094;SDS011;4090;49.270;8.696;2022-08-25T06:57:41;9.27;;;5.85;;
8094;SDS011;4090;49.270;8.696;2022-08-25T07:00:23;7.50;;;5.90;;
8094;SDS011;4090;49.270;8.696;2022-08-25T07:03:06;8.98;;;6.38;;
8094;SDS011;4090;49.270;8.696;2022-08-25T07:05:51;7.80;;;5.72;;
8094;SDS011;4090;49.270;8.696;2022-08-25T07:08:34;7.50;;;5.80;;
8094;SDS011;4090;49.270;8.696;2022-08-25T07:11:16;8.20;;;6.22;;
8094;SDS011;4090;49.270;8.696;2022-08-25T07:14:00;9.18;;;6.10;;
8094;SDS011;4090;49.270;8.696;2022-08-25T07:16:43;7.20;;;5.88;;
8094;SDS011;4090;49.270;8.696;2022-08-25T07:19:27;7.68;;;6.43;;
8094;SDS011;4090;49.270;8.696;2022-08-25T07:22:09;8.88;;;6.32;;
8094;SDS011;4090;49.270;8.696;2022-08-25T07:24:51;10.50;;;5.65;;
8094;SDS011;4090;49.270;8.696;2022-08-25T07:27:33;9.75;;;6.47;;
8094;SDS011;4090;49.270;8.696;2022-08-25T07:30:15;10.05;;;6.25;;
8094;SDS011;4090;49.270;8.696;2022-08-25T07:32:58;6.32;;;5.07;;
8094;SDS011;4090;49.270;8.696;2022-08-25T07:35:41;10.10;;;6.38;;
8094;SDS011;4090;49.270;8.696;2022-08-25T07:38:22;7.20;;;5.45;;
8094;SDS011;4090;49.270;8.696;2022-08-25T07:41:04;6.93;;;5.72;;
8094;SDS011;4090;49.270;8.696;2022-08-25T07:43:46;8.60;;;6.05;;
8094;SDS011;4090;49.270;8.696;2022-08-25T07:46:28;7.95;;;5.95;;
8094;SDS011;4090;49.270;8.696;2022-08-25T07:49:10;8.25;;;6.07;;
8094;SDS011;4090;49.270;8.696;2022-08-25T07:51:53;7.82;;;5.65;;
8094;SDS011;4090;49.270;8.696;2022-08-25T07:54:35;7.10;;;5.53;;
8094;SDS011;4090;49.270;8.696;2022-08-25T07:57:18;7.78;;;6.15;;
8094;SDS011;4090;49.270;8.696;2022-08-25T08:00:01;8.50;;;6.05;;
8094;SDS011;4090;49.270;8.696;2022-08-25T08:02:52;8.40;;;6.38;;
8094;SDS011;4090;49.270;8.696;2022-08-25T08:05:33;10.30;;;5.55;;
8094;SDS011;4090;49.270;8.696;2022-08-25T08:08:18;8.30;;;5.72;;
8094;SDS011;4090;49.270;8.696;2022-08-25T08:10:59;9.05;;;6.07;;
8094;SDS011;4090;49.270;8.696;2022-08-25T08:13:41;6.68;;;5.22;;
8094;SDS011;4090;49.270;8.696;2022-08-25T08:16:24;8.23;;;5.63;;
8094;SDS011;4090;49.270;8.696;2022-08-25T08:19:08;7.80;;;5.63;;
8094;SDS011;4090;49.270;8.696;2022-08-25T08:21:50;8.43;;;5.97;;
8094;SDS011;4090;49.270;8.696;2022-08-25T08:24:33;9.32;;;5.75;;
8094;SDS011;4090;49.270;8.696;2022-08-25T08:27:18;7.80;;;5.20;;
8094;SDS011;4090;49.270;8.696;2022-08-25T08:30:00;6.80;;;5.53;;
8094;SDS011;4090;49.270;8.696;2022-08-25T08:32:42;6.60;;;5.38;;
8094;SDS011;4090;49.270;8.696;2022-08-25T08:35:24;6.90;;;5.40;;
8094;SDS011;4090;49.270;8.696;2022-08-25T08:38:05;6.63;;;5.47;;
8094;SDS011;4090;49.270;8.696;2022-08-25T08:40:52;5.75;;;4.55;;
8094;SDS011;4090;49.270;8.696;2022-08-25T08:43:55;8.20;;;5.68;;
8094;SDS011;4090;49.270;8.696;2022-08-25T08:46:48;6.75;;;5.15;;
8094;SDS011;4090;49.270;8.696;2022-08-25T08:49:38;5.20;;;4.70;;
8094;SDS011;4090;49.270;8.696;2022-08-25T08:52:35;6.75;;;4.35;;
8094;SDS011;4090;49.270;8.696;2022-08-25T08:55:22;5.60;;;4.80;;
8094;SDS011;4090;49.270;8.696;2022-08-25T08:58:12;6.28;;;4.72;;
8094;SDS011;4090;49.270;8.696;2022-08-25T09:00:58;7.38;;;5.03;;
8094;SDS011;4090;49.270;8.696;2022-08-25T09:03:41;5.05;;;4.15;;
8094;SDS011;4090;49.270;8.696;2022-08-25T09:06:27;5.03;;;4.32;;
8094;SDS011;4090;49.270;8.696;2022-08-25T09:09:13;6.90;;;4.47;;
8094;SDS011;4090;49.270;8.696;2022-08-25T09:12:02;5.38;;;4.13;;
8094;SDS011;4090;49.270;8.696;2022-08-25T09:14:56;6.13;;;4.88;;
8094;SDS011;4090;49.270;8.696;2022-08-25T09:17:55;5.25;;;4.00;;
8094;SDS011;4090;49.270;8.696;2022-08-25T09:20:49;5.95;;;4.20;;
8094;SDS011;4090;49.270;8.696;2022-08-25T09:23:41;5.72;;;4.50;;
8094;SDS011;4090;49.270;8.696;2022-08-25T09:26:35;4.72;;;4.07;;
8094;SDS011;4090;49.270;8.696;2022-08-25T09:29:23;4.93;;;4.05;;
8094;SDS011;4090;49.270;8.696;2022-08-25T09:32:08;6.80;;;4.57;;
8094;SDS011;4090;49.270;8.696;2022-08-25T09:34:50;7.15;;;4.28;;
8094;SDS011;4090;49.270;8.696;2022-08-25T09:37:32;5.22;;;4.68;;
8094;SDS011;4090;49.270;8.696;2022-08-25T09:40:14;7.82;;;4.38;;
8094;SDS011;4090;49.270;8.696;2022-08-25T09:42:57;4.85;;;3.75;;
8094;SDS011;4090;49.270;8.696;2022-08-25T09:45:41;5.78;;;4.20;;
8094;SDS011;4090;49.270;8.696;2022-08-25T09:48:28;4.95;;;4.18;;
8094;SDS011;4090;49.270;8.696;2022-08-25T09:51:18;5.82;;;3.88;;
8094;SDS011;4090;49.270;8.696;2022-08-25T09:54:04;5.80;;;4.10;;
8094;SDS011;4090;49.270;8.696;2022-08-25T09:56:59;5.57;;;4.30;;
8094;SDS011;4090;49.270;8.696;2022-08-25T09:59:44;5.43;;;4.38;;
8094;SDS011;4090;49.270;8.696;2022-08-25T10:02:30;6.13;;;4.20;;
8094;SDS011;4090;49.270;8.696;2022-08-25T10:05:21;7.40;;;4.75;;
8094;SDS011;4090;49.270;8.696;2022-08-25T10:08:09;4.55;;;3.88;;
8094;SDS011;4090;49.270;8.696;2022-08-25T10:10:54;5.82;;;3.90;;
8094;SDS011;4090;49.270;8.696;2022-08-25T10:13:39;6.25;;;3.92;;
8094;SDS011;4090;49.270;8.696;2022-08-25T10:16:23;4.60;;;4.03;;
8094;SDS011;4090;49.270;8.696;2022-08-25T10:19:06;5.05;;;4.13;;
8094;SDS011;4090;49.270;8.696;2022-08-25T10:22:05;5.25;;;4.05;;
8094;SDS011;4090;49.270;8.696;2022-08-25T10:24:49;5.45;;;4.00;;
8094;SDS011;4090;49.270;8.696;2022-08-25T10:27:32;4.18;;;3.70;;
8094;SDS011;4090;49.270;8.696;2022-08-25T10:30:22;5.60;;;3.67;;
8094;SDS011;4090;49.270;8.696;2022-08-25T10:33:14;4.55;;;3.70;;
8094;SDS011;4090;49.270;8.696;2022-08-25T10:36:04;7.07;;;3.40;;
8094;SDS011;4090;49.270;8.696;2022-08-25T10:38:54;5.85;;;3.72;;
8094;SDS011;4090;49.270;8.696;2022-08-25T10:41:41;6.03;;;4.00;;
8094;SDS011;4090;49.270;8.696;2022-08-25T10:44:32;5.53;;;4.38;;
8094;SDS011;4090;49.270;8.696;2022-08-25T10:47:43;6.93;;;4.10;;
8094;SDS011;4090;49.270;8.696;2022-08-25T10:50:42;6.22;;;4.20;;
8094;SDS011;4090;49.270;8.696;2022-08-25T10:53:28;6.50;;;4.25;;
8094;SDS011;4090;49.270;8.696;2022-08-25T10:56:20;5.75;;;3.90;;
8094;SDS011;4090;49.270;8.696;2022-08-25T10:59:15;4.40;;;4.00;;
8094;SDS011;4090;49.270;8.696;2022-08-25T11:02:28;4.22;;;3.78;;
8094;SDS011;4090;49.270;8.696;2022-08-25T11:05:34;4.25;;;3.53;;
8094;SDS011;4090;49.270;8.696;2022-08-25T11:08:25;6.32;;;3.72;;
8094;SDS011;4090;49.270;8.696;2022-08-25T11:11:15;5.25;;;4.03;;
8094;SDS011;4090;49.270;8.696;2022-08-25T11:14:06;5.82;;;3.90;;
8094;SDS011;4090;49.270;8.696;2022-08-25T11:16:51;5.60;;;4.03;;
8094;SDS011;4090;49.270;8.696;2022-08-25T11:19:40;5.47;;;3.80;;
8094;SDS011;4090;49.270;8.696;2022-08-25T11:22:25;8.02;;;4.07;;
8094;SDS011;4090;49.270;8.696;2022-08-25T11:25:13;6.07;;;3.85;;
8094;SDS011;4090;49.270;8.696;2022-08-25T11:28:02;4.80;;;4.15;;
8094;SDS011;4090;49.270;8.696;2022-08-25T11:30:49;5.15;;;4.30;;
8094;SDS011;4090;49.270;8.696;2022-08-25T11:33:32;5.53;;;4.28;;
8094;SDS011;4090;49.270;8.696;2022-08-25T11:36:16;4.18;;;3.78;;
8094;SDS011;4090;49.270;8.696;2022-08-25T11:39:11;4.70;;;4.25;;
8094;SDS011;4090;49.270;8.696;2022-08-25T11:41:58;5.63;;;4.53;;
8094;SDS011;4090;49.270;8.696;2022-08-25T11:44:57;9.63;;;4.28;;
8094;SDS011;4090;49.270;8.696;2022-08-25T11:47:57;4.18;;;3.78;;
8094;SDS011;4090;49.270;8.696;2022-08-25T11:50:55;4.03;;;3.55;;
8094;SDS011;4090;49.270;8.696;2022-08-25T11:53:41;4.05;;;3.65;;
8094;SDS011;4090;49.270;8.696;2022-08-25T11:56:29;4.68;;;4.07;;
8094;SDS011;4090;49.270;8.696;2022-08-25T11:59:14;4.13;;;3.72;;
8094;SDS011;4090;49.270;8.696;2022-08-25T12:02:39;4.07;;;3.67;;
8094;SDS011;4090;49.270;8.696;2022-08-25T12:11:46;4.93;;;4.32;;
8094;SDS011;4090;49.270;8.696;2022-08-25T12:17:36;5.05;;;3.55;;
8094;SDS011;4090;49.270;8.696;2022-08-25T12:20:19;4.40;;;4.00;;
8094;SDS011;4090;49.270;8.696;2022-08-25T12:24:03;4.95;;;3.72;;
8094;SDS011;4090;49.270;8.696;2022-08-25T12:26:53;3.85;;;3.45;;
8094;SDS011;4090;49.270;8.696;2022-08-25T12:29:39;4.40;;;3.63;;
8094;SDS011;4090;49.270;8.696;2022-08-25T12:32:39;5.82;;;3.72;;
8094;SDS011;4090;49.270;8.696;2022-08-25T12:35:36;3.85;;;3.53;;
8094;SDS011;4090;49.270;8.696;2022-08-25T12:38:26;6.45;;;3.40;;
8094;SDS011;4090;49.270;8.696;2022-08-25T12:41:11;4.32;;;3.88;;
8094;SDS011;4090;49.270;8.696;2022-08-25T12:44:07;4.50;;;3.30;;
8094;SDS011;4090;49.270;8.696;2022-08-25T12:47:04;3.97;;;3.58;;
8094;SDS011;4090;49.270;8.696;2022-08-25T12:49:49;3.65;;;3.35;;
8094;SDS011;4090;49.270;8.696;2022-08-25T12:52:31;4.30;;;3.53;;
8094;SDS011;4090;49.270;8.696;2022-08-25T12:55:13;4.40;;;3.60;;
8094;SDS011;4090;49.270;8.696;2022-08-25T12:57:55;4.85;;;3.50;;
8094;SDS011;4090;49.270;8.696;2022-08-25T13:00:54;4.90;;;3.63;;
8094;SDS011;4090;49.270;8.696;2022-08-25T13:03:54;4.65;;;3.88;;
8094;SDS011;4090;49.270;8.696;2022-08-25T13:07:13;3.72;;;3.40;;
8094;SDS011;4090;49.270;8.696;2022-08-25T13:10:07;4.03;;;3.63;;
8094;SDS011;4090;49.270;8.696;2022-08-25T13:13:08;3.70;;;3.33;;
8094;SDS011;4090;49.270;8.696;2022-08-25T13:15:57;4.95;;;3.70;;
8094;SDS011;4090;49.270;8.696;2022-08-25T13:18:40;3.67;;;3.38;;
8094;SDS011;4090;49.270;8.696;2022-08-25T13:21:23;3.80;;;3.40;;
8094;SDS011;4090;49.270;8.696;2022-08-25T13:24:13;4.22;;;3.65;;
8094;SDS011;4090;49.270;8.696;2022-08-25T13:27:00;4.80;;;3.00;;
8094;SDS011;4090;49.270;8.696;2022-08-25T13:29:49;5.00;;;3.03;;
8094;SDS011;4090;49.270;8.696;2022-08-25T13:32:33;5.05;;;3.55;;
8094;SDS011;4090;49.270;8.696;2022-08-25T13:35:19;5.57;;;3.63;;
8094;SDS011;4090;49.270;8.696;2022-08-25T13:38:12;4.35;;;3.58;;
8094;SDS011;4090;49.270;8.696;2022-08-25T13:41:02;4.03;;;3.63;;
8094;SDS011;4090;49.270;8.696;2022-08-25T13:43:45;4.32;;;3.47;;
8094;SDS011;4090;49.270;8.696;2022-08-25T13:46:27;4.82;;;3.30;;
8094;SDS011;4090;49.270;8.696;2022-08-25T13:49:08;4.88;;;4.45;;
8094;SDS011;4090;49.270;8.696;2022-08-25T13:51:52;3.40;;;3.10;;
8094;SDS011;4090;49.270;8.696;2022-08-25T13:54:35;5.30;;;3.65;;
8094;SDS011;4090;49.270;8.696;2022-08-25T13:57:21;5.07;;;3.47;;
8094;SDS011;4090;49.270;8.696;2022-08-25T14:00:06;4.55;;;3.40;;
8094;SDS011;4090;49.270;8.696;2022-08-25T14:02:50;3.40;;;3.10;;
8094;SDS011;4090;49.270;8.696;2022-08-25T14:05:35;3.72;;;3.42;;
8094;SDS011;4090;49.270;8.696;2022-08-25T14:08:28;3.42;;;3.13;;
8094;SDS011;4090;49.270;8.696;2022-08-25T14:11:13;3.72;;;3.20;;
8094;SDS011;4090;49.270;8.696;2022-08-25T14:14:00;4.82;;;3.28;;
8094;SDS011;4090;49.270;8.696;2022-08-25T14:16:45;6.25;;;3.60;;
8094;SDS011;4090;49.270;8.696;2022-08-25T14:19:29;3.95;;;3.60;;
8094;SDS011;4090;49.270;8.696;2022-08-25T14:22:12;3.33;;;3.03;;
8094;SDS011;4090;49.270;8.696;2022-08-25T14:24:54;3.50;;;3.20;;
8094;SDS011;4090;49.270;8.696;2022-08-25T14:27:39;4.68;;;3.40;;
8094;SDS011;4090;49.270;8.696;2022-08-25T14:30:23;3.20;;;2.90;;
8094;SDS011;4090;49.270;8.696;2022-08-25T14:33:05;6.20;;;3.50;;
8094;SDS011;4090;49.270;8.696;2022-08-25T14:35:49;3.58;;;3.22;;
8094;SDS011;4090;49.270;8.696;2022-08-25T14:38:33;3.78;;;3.35;;
8094;SDS011;4090;49.270;8.696;2022-08-25T14:41:18;4.30;;;3.30;;
8094;SDS011;4090;49.270;8.696;2022-08-25T14:43:59;5.30;;;3.50;;
8094;SDS011;4090;49.270;8.696;2022-08-25T14:46:44;3.42;;;3.13;;
8094;SDS011;4090;49.270;8.696;2022-08-25T14:49:32;3.78;;;3.47;;
8094;SDS011;4090;49.270;8.696;2022-08-25T14:52:17;3.67;;;3.10;;
8094;SDS011;4090;49.270;8.696;2022-08-25T14:55:01;5.30;;;3.53;;
8094;SDS011;4090;49.270;8.696;2022-08-25T14:57:43;3.80;;;3.40;;
8094;SDS011;4090;49.270;8.696;2022-08-25T15:00:25;5.78;;;3.30;;
8094;SDS011;4090;49.270;8.696;2022-08-25T15:03:10;4.00;;;3.28;;
8094;SDS011;4090;49.270;8.696;2022-08-25T15:05:53;4.88;;;3.55;;
8094;SDS011;4090;49.270;8.696;2022-08-25T15:08:35;3.42;;;2.95;;
8094;SDS011;4090;49.270;8.696;2022-08-25T15:11:34;4.32;;;3.58;;
8094;SDS011;4090;49.270;8.696;2022-08-25T15:14:18;3.67;;;3.13;;
8094;SDS011;4090;49.270;8.696;2022-08-25T15:17:02;4.35;;;3.50;;
8094;SDS011;4090;49.270;8.696;2022-08-25T15:19:45;2.92;;;2.72;;
8094;SDS011;4090;49.270;8.696;2022-08-25T15:22:27;3.47;;;3.17;;
8094;SDS011;4090;49.270;8.696;2022-08-25T15:25:09;4.25;;;3.65;;
8094;SDS011;4090;49.270;8.696;2022-08-25T15:27:51;3.28;;;2.97;;
8094;SDS011;4090;49.270;8.696;2022-08-25T15:30:34;3.83;;;3.00;;
8094;SDS011;4090;49.270;8.696;2022-08-25T15:33:16;3.80;;;3.22;;
8094;SDS011;4090;49.270;8.696;2022-08-25T15:36:00;3.65;;;3.35;;
8094;SDS011;4090;49.270;8.696;2022-08-25T15:38:42;3.55;;;3.15;;
8094;SDS011;4090;49.270;8.696;2022-08-25T15:41:24;3.20;;;2.90;;
8094;SDS011;4090;49.270;8.696;2022-08-25T15:44:07;3.22;;;2.92;;
8094;SDS011;4090;49.270;8.696;2022-08-25T15:46:50;3.88;;;3.25;;
8094;SDS011;4090;49.270;8.696;2022-08-25T15:49:32;3.58;;;3.28;;
8094;SDS011;4090;49.270;8.696;2022-08-25T15:52:15;3.08;;;2.78;;
8094;SDS011;4090;49.270;8.696;2022-08-25T15:54:57;3.30;;;2.97;;
8094;SDS011;4090;49.270;8.696;2022-08-25T15:57:40;3.42;;;3.13;;
8094;SDS011;4090;49.270;8.696;2022-08-25T16:00:22;3.63;;;3.17;;
8094;SDS011;4090;49.270;8.696;2022-08-25T16:03:04;5.40;;;3.30;;
8094;SDS011;4090;49.270;8.696;2022-08-25T16:05:47;4.18;;;3.47;;
8094;SDS011;4090;49.270;8.696;2022-08-25T16:08:30;3.72;;;3.08;;
8094;SDS011;4090;49.270;8.696;2022-08-25T16:11:16;5.63;;;3.28;;
8094;SDS011;4090;49.270;8.696;2022-08-25T16:14:01;3.38;;;2.97;;
8094;SDS011;4090;49.270;8.696;2022-08-25T16:16:43;3.53;;;3.22;;
8094;SDS011;4090;49.270;8.696;2022-08-25T16:19:25;3.00;;;2.80;;
8094;SDS011;4090;49.270;8.696;2022-08-25T16:22:07;4.47;;;4.07;;
8094;SDS011;4090;49.270;8.696;2022-08-25T16:24:50;3.97;;;3.67;;
8094;SDS011;4090;49.270;8.696;2022-08-25T16:27:32;3.38;;;3.08;;
8094;SDS011;4090;49.270;8.696;2022-08-25T16:30:14;3.25;;;2.95;;
8094;SDS011;4090;49.270;8.696;2022-08-25T16:32:57;3.90;;;2.97;;
8094;SDS011;4090;49.270;8.696;2022-08-25T16:35:40;3.45;;;3.15;;
8094;SDS011;4090;49.270;8.696;2022-08-25T16:38:22;3.30;;;3.00;;
8094;SDS011;4090;49.270;8.696;2022-08-25T16:41:05;4.13;;;3.20;;
8094;SDS011;4090;49.270;8.696;2022-08-25T16:43:48;3.40;;;3.10;;
8094;SDS011;4090;49.270;8.696;2022-08-25T16:46:30;3.47;;;3.17;;
8094;SDS011;4090;49.270;8.696;2022-08-25T16:49:13;3.38;;;3.08;;
8094;SDS011;4090;49.270;8.696;2022-08-25T16:51:55;3.67;;;3.38;;
8094;SDS011;4090;49.270;8.696;2022-08-25T16:54:37;3.70;;;2.85;;
8094;SDS011;4090;49.270;8.696;2022-08-25T16:57:38;3.85;;;3.30;;
8094;SDS011;4090;49.270;8.696;2022-08-25T17:00:21;4.07;;;3.38;;
8094;SDS011;4090;49.270;8.696;2022-08-25T17:03:07;3.92;;;3.53;;
8094;SDS011;4090;49.270;8.696;2022-08-25T17:05:49;7.30;;;3.92;;
8094;SDS011;4090;49.270;8.696;2022-08-25T17:08:31;6.07;;;3.10;;
8094;SDS011;4090;49.270;8.696;2022-08-25T17:11:14;4.28;;;3.13;;
8094;SDS011;4090;49.270;8.696;2022-08-25T17:14:02;8.68;;;3.42;;
8094;SDS011;4090;49.270;8.696;2022-08-25T17:16:45;10.82;;;4.35;;